Time;durP1;ratioP1;P1;durP2;ratioP2;P2;SDS_P1;SDS_P2;PMS_P1;PMS_P2;Temp;Humidity;BMP_temperature;BMP_pressure;BME280_temperature;BME280_humidity;BME280_pressure;Samples;Min_cycle;Max_cycle;Signal;HPM_P1;HPM_P2
2024/01/27 00:00:18;;;;;;;7.30;2.55;;;;;;;2.43;47.39;94284.28;5073632;28;20040;-71
2024/01/27 00:02:44;;;;;;;8.27;3.58;;;;;;;2.35;46.90;94252.47;5073876;28;20561;-71
2024/01/27 00:05:09;;;;;;;8.60;2.90;;;;;;;2.48;46.40;94267.78;5072339;28;20048;-71
2024/01/27 00:07:35;;;;;;;4.18;1.98;;;;;;;2.49;46.48;94253.63;5073513;28;20656;-71
2024/01/27 00:10:02;;;;;;;3.03;2.00;;;;;;;2.60;46.01;94265.00;5074163;28;20099;-71
2024/01/27 00:12:27;;;;;;;2.88;2.08;;;;;;;2.59;45.56;94252.91;5072368;28;20048;-71
2024/01/27 00:14:53;;;;;;;9.10;2.50;;;;;;;2.67;45.54;94250.59;5073963;28;20036;-71
2024/01/27 00:17:23;;;;;;;4.95;2.20;;;;;;;2.78;44.31;94256.69;5073521;28;20032;-71
2024/01/27 00:19:49;;;;;;;5.32;1.98;;;;;;;2.62;44.03;94247.13;5073330;28;20027;-71
2024/01/27 00:22:15;;;;;;;6.82;3.17;;;;;;;2.87;43.44;94228.91;5073947;28;20020;-71
2024/01/27 00:24:40;;;;;;;3.20;2.22;;;;;;;2.78;42.66;94223.34;5073098;28;20063;-71
2024/01/27 00:27:06;;;;;;;3.05;2.08;;;;;;;2.81;43.20;94243.03;5073377;28;20082;-71
2024/01/27 00:29:31;;;;;;;5.53;2.40;;;;;;;2.80;42.28;94204.69;5073209;28;20052;-71
2024/01/27 00:31:56;;;;;;;6.95;2.20;;;;;;;2.91;41.96;94224.72;5071713;28;20054;-71
2024/01/27 00:34:22;;;;;;;6.15;2.53;;;;;;;3.04;42.23;94237.38;5072449;28;20391;-71
2024/01/27 00:36:48;;;;;;;3.97;1.98;;;;;;;3.21;41.74;94245.09;5072319;28;20105;-71
2024/01/27 00:39:15;;;;;;;8.07;3.17;;;;;;;3.31;42.06;94240.69;5073196;28;20115;-70
2024/01/27 00:41:40;;;;;;;6.45;2.20;;;;;;;3.15;42.01;94239.03;5071755;28;20036;-71
2024/01/27 00:44:06;;;;;;;2.45;1.95;;;;;;;3.23;42.07;94227.25;5072833;28;20025;-71
2024/01/27 00:46:32;;;;;;;3.70;1.92;;;;;;;3.37;42.15;94252.00;5073679;28;20029;-71
2024/01/27 00:48:57;;;;;;;5.72;2.15;;;;;;;3.17;41.76;94226.44;5072543;28;20033;-71
2024/01/27 00:51:22;;;;;;;5.80;2.20;;;;;;;3.19;40.66;94247.97;5072647;28;20079;-71
2024/01/27 00:53:48;;;;;;;5.90;2.13;;;;;;;3.07;40.55;94234.25;5072951;28;20131;-71
2024/01/27 00:56:13;;;;;;;3.83;1.88;;;;;;;2.98;41.29;94227.91;5072516;28;20123;-71
2024/01/27 00:58:39;;;;;;;10.93;2.58;;;;;;;3.08;42.09;94235.84;5072656;28;20031;-71
2024/01/27 01:01:06;;;;;;;6.63;2.28;;;;;;;2.99;42.89;94232.09;5073140;28;20535;-71
2024/01/27 01:03:32;;;;;;;3.22;1.70;;;;;;;3.19;39.56;94245.34;5077974;28;20032;-71
2024/01/27 01:05:57;;;;;;;4.57;1.73;;;;;;;3.08;39.25;94233.22;5073001;28;20158;-71
2024/01/27 01:08:22;;;;;;;11.13;4.10;;;;;;;3.16;41.20;94237.97;5072411;28;20041;-71
2024/01/27 01:10:48;;;;;;;7.50;3.13;;;;;;;3.05;41.66;94225.84;5070889;28;20028;-71
2024/01/27 01:13:13;;;;;;;9.80;4.50;;;;;;;3.02;40.87;94228.19;5072558;28;20033;-71
2024/01/27 01:15:39;;;;;;;7.60;3.63;;;;;;;3.02;41.24;94244.75;5072393;28;20500;-71
2024/01/27 01:18:05;;;;;;;7.97;1.90;;;;;;;2.93;39.49;94212.91;5072378;28;20116;-71
2024/01/27 01:20:32;;;;;;;6.45;2.05;;;;;;;2.87;39.57;94221.81;5071938;28;20031;-71
2024/01/27 01:22:58;;;;;;;4.05;2.70;;;;;;;3.02;39.70;94251.84;5072402;28;20090;-71
2024/01/27 01:25:23;;;;;;;6.55;1.50;;;;;;;3.14;39.33;94247.94;5072804;28;20020;-71
2024/01/27 01:27:49;;;;;;;4.13;2.00;;;;;;;3.00;39.02;94228.44;5072069;28;20450;-71
2024/01/27 01:30:16;;;;;;;2.05;1.48;;;;;;;2.79;38.65;94190.00;5070825;28;20036;-71
2024/01/27 01:32:42;;;;;;;4.78;1.90;;;;;;;3.02;38.62;94223.72;5072038;28;20033;-71
2024/01/27 01:35:08;;;;;;;5.95;1.85;;;;;;;2.86;38.12;94224.69;5071916;28;20028;-71
2024/01/27 01:37:33;;;;;;;5.80;2.10;;;;;;;2.92;38.39;94224.47;5071043;28;20093;-70
2024/01/27 01:39:59;;;;;;;4.75;1.90;;;;;;;3.03;38.41;94212.19;5070916;28;20111;-71
2024/01/27 01:42:24;;;;;;;6.00;1.65;;;;;;;3.27;38.01;94218.59;5070695;28;20044;-71
2024/01/27 01:44:51;;;;;;;6.28;1.98;;;;;;;3.21;38.18;94205.69;5070634;28;20059;-71
2024/01/27 01:47:17;;;;;;;6.47;1.85;;;;;;;3.22;38.22;94205.44;5070882;28;20499;-71
2024/01/27 01:49:43;;;;;;;2.55;1.70;;;;;;;3.29;38.23;94200.69;5070714;28;20067;-71
2024/01/27 01:52:09;;;;;;;4.40;1.83;;;;;;;3.27;38.96;94175.72;5070900;28;20084;-71
2024/01/27 01:54:34;;;;;;;4.47;2.00;;;;;;;3.55;38.50;94192.91;5071448;28;20028;-71
2024/01/27 01:57:00;;;;;;;3.60;1.40;;;;;;;3.47;35.69;94175.00;5071509;28;20460;-71
2024/01/27 01:59:26;;;;;;;5.07;1.60;;;;;;;3.48;36.28;94205.50;5071456;28;20036;-71
2024/01/27 02:01:51;;;;;;;4.03;1.45;;;;;;;3.40;36.34;94199.69;5071319;28;20546;-71
2024/01/27 02:04:17;;;;;;;4.20;1.50;;;;;;;3.61;34.20;94203.19;5071807;28;20157;-71
2024/01/27 02:06:42;;;;;;;2.78;1.75;;;;;;;3.59;35.16;94201.84;5071599;28;20085;-71
2024/01/27 02:09:09;;;;;;;3.35;1.80;;;;;;;3.43;35.04;94173.94;5071404;28;20063;-71
2024/01/27 02:11:35;;;;;;;3.03;1.40;;;;;;;3.34;35.50;94184.16;5071329;28;20031;-71
2024/01/27 02:14:00;;;;;;;2.22;1.55;;;;;;;3.45;34.83;94170.00;5071346;28;20025;-71
2024/01/27 02:16:26;;;;;;;3.47;1.90;;;;;;;3.64;34.36;94170.28;5071890;28;20244;-71
2024/01/27 02:18:51;;;;;;;3.72;1.50;;;;;;;3.72;34.16;94164.53;5071377;28;20491;-71
2024/01/27 02:21:17;;;;;;;2.88;1.65;;;;;;;3.59;34.46;94167.66;5071197;28;20086;-71
2024/01/27 02:23:42;;;;;;;3.55;1.70;;;;;;;3.60;35.78;94159.50;5071067;28;20029;-71
2024/01/27 02:26:08;;;;;;;4.03;1.70;;;;;;;3.61;35.11;94161.09;5070917;28;20047;-71
2024/01/27 02:28:35;;;;;;;3.28;1.40;;;;;;;3.55;35.56;94156.06;5071579;28;20376;-71
2024/01/27 02:31:00;;;;;;;4.97;2.20;;;;;;;3.57;35.88;94151.34;5069823;28;20048;-71
2024/01/27 02:33:26;;;;;;;4.85;1.92;;;;;;;3.50;36.42;94148.97;5071013;28;20054;-71
2024/01/27 02:35:51;;;;;;;9.80;2.72;;;;;;;3.48;36.71;94145.78;5071010;28;20036;-71
2024/01/27 02:38:17;;;;;;;3.35;1.50;;;;;;;3.60;35.42;94162.13;5071018;28;20411;-71
2024/01/27 02:40:42;;;;;;;7.43;2.08;;;;;;;3.58;34.91;94145.03;5070872;28;20472;-71
2024/01/27 02:43:08;;;;;;;3.85;1.70;;;;;;;3.74;34.68;94170.31;5071186;28;20635;-71
2024/01/27 02:45:33;;;;;;;2.20;1.65;;;;;;;3.77;33.37;94165.31;5070823;28;20403;-71
2024/01/27 02:47:59;;;;;;;3.67;1.10;;;;;;;3.77;33.26;94152.16;5070924;28;20384;-71
2024/01/27 02:50:24;;;;;;;4.10;1.80;;;;;;;3.75;32.63;94153.47;5070714;28;20133;-71
2024/01/27 02:52:50;;;;;;;3.15;2.08;;;;;;;3.57;33.21;94127.69;5070977;28;20028;-71
2024/01/27 02:55:15;;;;;;;2.83;1.35;;;;;;;3.69;34.82;94141.34;5069998;28;20028;-71
2024/01/27 02:57:41;;;;;;;3.50;1.70;;;;;;;3.59;36.44;94147.41;5070638;28;20039;-71
2024/01/27 03:00:07;;;;;;;3.78;1.92;;;;;;;3.70;37.85;94154.25;5070292;28;20056;-71
2024/01/27 03:02:33;;;;;;;3.97;1.45;;;;;;;3.54;40.09;94128.19;5070461;28;20029;-71
2024/01/27 03:04:58;;;;;;;6.97;1.77;;;;;;;3.67;41.31;94151.38;5070771;28;20514;-71
2024/01/27 03:07:24;;;;;;;3.90;1.90;;;;;;;3.62;42.40;94146.09;5069716;28;20028;-71
2024/01/27 03:09:49;;;;;;;3.65;1.58;;;;;;;3.69;42.84;94159.78;5071635;28;20036;-71
2024/01/27 03:12:15;;;;;;;5.57;2.55;;;;;;;3.51;43.55;94160.28;5069594;28;20029;-71
2024/01/27 03:14:41;;;;;;;3.17;1.90;;;;;;;3.49;45.44;94155.28;5068876;28;20455;-71
2024/01/27 03:17:07;;;;;;;4.65;2.65;;;;;;;3.64;45.54;94167.66;5071086;28;20029;-71
2024/01/27 03:19:33;;;;;;;2.83;2.28;;;;;;;3.48;45.78;94173.97;5071143;28;20045;-71
2024/01/27 03:21:58;;;;;;;3.80;1.90;;;;;;;3.48;46.83;94173.97;5071590;28;20020;-71
2024/01/27 03:24:24;;;;;;;4.72;1.77;;;;;;;3.55;47.20;94167.38;5070886;28;20503;-71
2024/01/27 03:26:49;;;;;;;3.47;1.42;;;;;;;3.26;49.01;94168.88;5071161;28;20071;-71
2024/01/27 03:29:15;;;;;;;2.55;1.92;;;;;;;3.37;50.67;94181.81;5071064;28;20039;-70
2024/01/27 03:31:40;;;;;;;5.68;2.92;;;;;;;3.17;51.92;94173.06;5070868;28;20028;-71
2024/01/27 03:34:06;;;;;;;2.08;1.60;;;;;;;3.26;52.64;94164.44;5070945;28;20025;-71
2024/01/27 03:36:31;;;;;;;3.28;1.75;;;;;;;3.00;53.60;94154.06;5070848;28;20043;-70
2024/01/27 03:38:58;;;;;;;1.88;1.52;;;;;;;3.09;54.68;94169.09;5070700;28;20456;-71
2024/01/27 03:41:23;;;;;;;2.60;1.40;;;;;;;3.19;54.47;94148.09;5069778;28;20037;-70
2024/01/27 03:43:49;;;;;;;3.08;1.30;;;;;;;3.20;56.08;94172.53;5070707;28;20111;-70
2024/01/27 03:46:15;;;;;;;2.50;1.35;;;;;;;3.09;56.40;94142.00;5070436;28;20490;-70
2024/01/27 03:48:41;;;;;;;3.63;2.10;;;;;;;3.11;56.11;94145.19;5068307;28;20028;-70
2024/01/27 03:51:06;;;;;;;3.25;1.40;;;;;;;3.09;56.35;94126.25;5068585;28;20520;-70
2024/01/27 03:53:32;;;;;;;4.05;2.10;;;;;;;3.15;56.08;94128.63;5070208;28;20044;-70
2024/01/27 03:55:59;;;;;;;2.90;1.70;;;;;;;3.28;56.51;94141.28;5068180;28;20031;-70
2024/01/27 03:58:25;;;;;;;3.97;1.55;;;;;;;3.20;57.19;94133.13;5069886;28;20031;-68
2024/01/27 04:00:51;;;;;;;6.20;1.30;;;;;;;3.34;57.45;94124.47;5070001;28;20024;-70
2024/01/27 04:03:17;;;;;;;3.17;1.58;;;;;;;3.30;57.57;94128.69;5069629;28;20021;-70
2024/01/27 04:05:42;;;;;;;1.90;1.30;;;;;;;3.25;57.97;94147.06;5069775;28;20580;-70
2024/01/27 04:08:08;;;;;;;9.85;2.83;;;;;;;3.07;57.02;94134.41;5069319;28;20403;-70
2024/01/27 04:10:34;;;;;;;7.80;2.08;;;;;;;3.00;57.85;94133.06;5068617;28;20124;-69
2024/01/27 04:12:59;;;;;;;3.45;2.20;;;;;;;3.24;58.12;94150.75;5071681;28;20020;-70
2024/01/27 04:15:25;;;;;;;5.50;2.05;;;;;;;3.24;58.11;94142.84;5071483;28;20082;-70
2024/01/27 04:17:50;;;;;;;5.03;2.35;;;;;;;3.02;58.46;94121.25;5071716;28;20082;-70
2024/01/27 04:20:16;;;;;;;5.65;2.45;;;;;;;3.02;58.93;94125.72;5072937;28;20039;-70
2024/01/27 04:22:41;;;;;;;4.97;2.42;;;;;;;3.30;59.33;94139.19;5072943;28;20024;-70
2024/01/27 04:25:07;;;;;;;4.05;2.50;;;;;;;3.31;59.33;94130.25;5073099;28;20094;-70
2024/01/27 04:27:38;;;;;;;2.05;1.38;;;;;;;3.37;59.45;94142.38;5072881;28;20557;-70
2024/01/27 04:30:06;;;;;;;1.25;1.15;;;;;;;3.26;59.96;94124.19;5073411;28;20024;-70
2024/01/27 04:32:31;;;;;;;1.50;1.02;;;;;;;3.44;59.19;94133.44;5073906;28;20060;-70
2024/01/27 04:34:57;;;;;;;2.92;1.58;;;;;;;3.32;59.88;94123.97;5073806;28;20055;-70
2024/01/27 04:37:22;;;;;;;2.17;1.10;;;;;;;3.27;60.29;94144.97;5073327;28;20425;-70
2024/01/27 04:39:48;;;;;;;2.80;1.25;;;;;;;3.39;60.46;94166.56;5074144;28;20028;-70
2024/01/27 04:42:13;;;;;;;2.55;1.30;;;;;;;3.56;60.11;94160.28;5073183;28;20025;-70
2024/01/27 04:44:42;;;;;;;1.63;1.52;;;;;;;3.55;60.80;94156.06;5072467;28;20504;-70
2024/01/27 04:47:07;;;;;;;1.25;1.10;;;;;;;3.51;61.28;94147.13;5073459;28;20036;-70
2024/01/27 04:49:33;;;;;;;1.25;1.00;;;;;;;3.28;61.51;94109.75;5071800;28;20037;-70
2024/01/27 04:51:58;;;;;;;2.05;1.00;;;;;;;3.54;61.79;94138.72;5073563;28;20499;-70
2024/01/27 04:54:25;;;;;;;1.10;1.10;;;;;;;3.64;61.75;94133.47;5073448;28;20399;-70
2024/01/27 04:56:50;;;;;;;1.30;1.20;;;;;;;3.44;63.07;94142.09;5071815;28;20058;-70
2024/01/27 04:59:16;;;;;;;2.38;1.40;;;;;;;3.44;63.47;94144.75;5073355;28;20571;-70
2024/01/27 05:01:45;;;;;;;1.30;1.20;;;;;;;3.57;63.39;94151.34;5073152;28;20025;-70
2024/01/27 05:04:11;;;;;;;1.10;1.00;;;;;;;3.57;63.63;94159.25;5073984;28;20084;-70
2024/01/27 05:06:38;;;;;;;1.70;1.30;;;;;;;3.50;64.31;94158.69;5073014;28;20188;-70
2024/01/27 05:09:04;;;;;;;2.25;1.70;;;;;;;3.24;64.94;94177.03;5072276;28;20031;-70
2024/01/27 05:11:31;;;;;;;2.13;1.25;;;;;;;3.32;64.84;94162.59;5071611;28;20032;-70
2024/01/27 05:13:58;;;;;;;3.45;1.80;;;;;;;3.27;64.54;94152.06;5071523;28;20078;-70
2024/01/27 05:16:23;;;;;;;1.75;1.30;;;;;;;3.38;64.37;94156.28;5071682;28;20078;-70
2024/01/27 05:18:49;;;;;;;5.97;2.05;;;;;;;3.27;65.43;94166.00;5072769;28;20483;-70
2024/01/27 05:21:14;;;;;;;2.72;2.33;;;;;;;3.28;66.39;94159.69;5071384;28;20542;-70
2024/01/27 05:23:40;;;;;;;1.80;1.40;;;;;;;3.41;66.24;94174.19;5072746;28;20040;-70
2024/01/27 05:26:06;;;;;;;3.58;1.80;;;;;;;3.38;67.29;94174.69;5072720;28;20457;-70
2024/01/27 05:28:31;;;;;;;1.33;1.13;;;;;;;3.15;68.34;94139.16;5072728;28;20032;-70
2024/01/27 05:30:57;;;;;;;2.17;1.30;;;;;;;3.17;68.29;94150.22;5073040;28;20027;-70
2024/01/27 05:33:23;;;;;;;2.78;1.98;;;;;;;3.27;68.80;94158.13;5072855;28;20029;-70
2024/01/27 05:35:49;;;;;;;1.33;1.23;;;;;;;3.44;67.90;94171.03;5072732;28;20028;-70
2024/01/27 05:38:14;;;;;;;7.63;3.78;;;;;;;3.49;67.07;94157.09;5072802;28;20508;-70
2024/01/27 05:40:40;;;;;;;4.65;1.95;;;;;;;3.70;66.13;94179.78;5070741;28;20025;-70
2024/01/27 05:43:05;;;;;;;1.42;1.20;;;;;;;3.70;65.95;94179.78;5073050;28;20055;-70
2024/01/27 05:45:31;;;;;;;1.13;1.02;;;;;;;3.48;66.57;94160.81;5072341;28;20032;-70
2024/01/27 05:47:56;;;;;;;2.72;1.70;;;;;;;3.72;65.76;94170.56;5072594;28;20090;-70
2024/01/27 05:50:22;;;;;;;3.38;1.38;;;;;;;3.71;65.90;94178.72;5072241;28;20035;-70
2024/01/27 05:52:47;;;;;;;1.50;1.13;;;;;;;3.66;65.19;94161.09;5070956;28;20074;-70
2024/01/27 05:55:13;;;;;;;3.10;1.20;;;;;;;3.63;65.92;94176.59;5072323;28;20056;-70
2024/01/27 05:57:38;;;;;;;1.70;1.10;;;;;;;3.62;66.37;94194.25;5072493;28;20022;-70
2024/01/27 06:00:05;;;;;;;2.75;1.73;;;;;;;3.56;65.75;94195.28;5071657;28;20055;-70
2024/01/27 06:02:31;;;;;;;1.52;1.42;;;;;;;3.62;64.76;94180.28;5072206;28;20036;-70
2024/01/27 06:04:56;;;;;;;3.38;1.10;;;;;;;3.73;64.75;94187.13;5072207;28;20104;-70
2024/01/27 06:07:21;;;;;;;2.25;1.20;;;;;;;3.66;65.77;94189.25;5072435;28;20020;-70
2024/01/27 06:09:47;;;;;;;1.50;1.17;;;;;;;3.65;65.58;94192.91;5072371;28;20025;-70
2024/01/27 06:12:12;;;;;;;1.20;1.10;;;;;;;3.48;66.30;94208.13;5071862;28;20086;-70
2024/01/27 06:14:38;;;;;;;1.48;1.10;;;;;;;3.52;65.58;94193.41;5071787;28;20040;-70
2024/01/27 06:17:06;;;;;;;1.42;1.33;;;;;;;3.47;65.98;94211.81;5072212;28;20074;-70
2024/01/27 06:19:31;;;;;;;1.00;1.00;;;;;;;3.50;65.92;94195.50;5071707;28;20040;-70
2024/01/27 06:21:57;;;;;;;1.02;0.90;;;;;;;3.54;66.24;94201.81;5072107;28;20450;-70
2024/01/27 06:24:22;;;;;;;2.55;1.30;;;;;;;3.66;66.11;94226.06;5071452;28;20078;-70
2024/01/27 06:26:48;;;;;;;1.10;1.00;;;;;;;3.45;64.97;94203.38;5071531;28;20036;-70
2024/01/27 06:29:14;;;;;;;1.85;1.50;;;;;;;3.58;64.64;94229.19;5071702;28;20024;-70
2024/01/27 06:31:39;;;;;;;1.20;1.10;;;;;;;3.42;65.27;94233.63;5071208;28;20396;-70
2024/01/27 06:34:05;;;;;;;1.40;1.30;;;;;;;3.25;66.12;94261.94;5071141;28;20391;-70
2024/01/27 06:36:32;;;;;;;1.83;1.33;;;;;;;3.04;66.62;94242.66;5071878;28;20085;-70
2024/01/27 06:38:57;;;;;;;2.13;1.55;;;;;;;3.13;66.93;94279.78;5070962;28;20127;-70
2024/01/27 06:41:23;;;;;;;1.20;1.10;;;;;;;3.16;65.27;94252.97;5071401;28;20032;-70
2024/01/27 06:43:48;;;;;;;2.88;1.20;;;;;;;3.25;64.91;94270.63;5071436;28;20496;-70
2024/01/27 06:46:14;;;;;;;1.40;1.17;;;;;;;3.28;63.58;94259.56;5071355;28;20150;-70
2024/01/27 06:48:40;;;;;;;1.35;1.20;;;;;;;3.11;63.03;94240.59;5071330;28;20100;-70
2024/01/27 06:51:06;;;;;;;2.72;1.73;;;;;;;2.86;62.86;94232.56;5069912;28;20045;-70
2024/01/27 06:53:31;;;;;;;2.20;1.60;;;;;;;3.00;63.25;94249.47;5071421;28;20036;-70
2024/01/27 06:55:58;;;;;;;2.70;1.52;;;;;;;3.12;62.91;94278.97;5070736;28;20571;-70
2024/01/27 06:58:24;;;;;;;2.70;1.60;;;;;;;3.06;62.75;94264.22;5071335;28;20099;-70
2024/01/27 07:00:49;;;;;;;2.97;1.33;;;;;;;2.98;61.94;94277.84;5071242;28;20107;-70
2024/01/27 07:03:14;;;;;;;2.70;1.17;;;;;;;2.95;62.16;94280.97;5069871;28;20557;-70
2024/01/27 07:05:40;;;;;;;2.08;1.70;;;;;;;2.74;62.90;94277.44;5071137;28;20072;-70
2024/01/27 07:08:07;;;;;;;1.48;1.33;;;;;;;2.89;62.51;94268.88;5070660;28;20033;-70
2024/01/27 07:10:33;;;;;;;2.33;1.40;;;;;;;3.09;61.65;94268.94;5070712;28;20032;-70
2024/01/27 07:12:58;;;;;;;2.75;1.20;;;;;;;2.98;61.28;94262.06;5071222;28;20407;-70
2024/01/27 07:15:24;;;;;;;2.38;1.05;;;;;;;3.00;60.07;94270.47;5071219;28;20395;-70
2024/01/27 07:17:50;;;;;;;2.45;1.27;;;;;;;3.07;59.83;94278.94;5070284;28;20037;-70
2024/01/27 07:20:15;;;;;;;1.05;1.02;;;;;;;2.90;60.02;94254.66;5069897;28;20141;-70
2024/01/27 07:22:41;;;;;;;1.85;1.15;;;;;;;2.90;60.50;94278.31;5070297;28;20028;-70
2024/01/27 07:25:09;;;;;;;2.05;1.60;;;;;;;2.90;61.09;94276.47;5070935;28;20024;-70
2024/01/27 07:27:35;;;;;;;2.22;1.40;;;;;;;3.02;59.24;94278.91;5070463;28;20036;-70
2024/01/27 07:30:02;;;;;;;3.40;2.17;;;;;;;2.94;59.27;94301.19;5070433;28;20028;-70
2024/01/27 07:32:27;;;;;;;1.50;1.40;;;;;;;2.81;58.90;94303.47;5070047;28;20071;-70
2024/01/27 07:34:53;;;;;;;3.47;2.10;;;;;;;2.71;59.45;94324.41;5069802;28;20071;-70
2024/01/27 07:37:18;;;;;;;3.58;1.88;;;;;;;2.59;59.00;94321.16;5070072;28;20025;-70
2024/01/27 07:39:44;;;;;;;4.70;2.13;;;;;;;2.63;59.44;94364.28;5070952;28;20436;-70
2024/01/27 07:42:10;;;;;;;3.15;1.83;;;;;;;2.51;59.31;94372.28;5070514;28;20032;-70
2024/01/27 07:44:35;;;;;;;2.72;2.03;;;;;;;2.38;59.36;94384.00;5070627;28;20543;-70
2024/01/27 07:47:01;;;;;;;3.15;2.20;;;;;;;2.48;59.29;94378.84;5073777;28;20507;-70
2024/01/27 07:49:26;;;;;;;5.80;2.20;;;;;;;2.29;60.03;94380.25;5074327;28;20387;-70
2024/01/27 07:51:52;;;;;;;2.90;2.05;;;;;;;2.26;59.13;94375.47;5074515;28;20525;-70
2024/01/27 07:54:17;;;;;;;4.80;2.67;;;;;;;2.17;60.19;94370.91;5074070;28;20500;-70
2024/01/27 07:56:42;;;;;;;4.55;2.63;;;;;;;2.26;61.17;94391.22;5074055;28;20033;-70
2024/01/27 07:59:14;;;;;;;5.75;3.17;;;;;;;2.31;60.50;94378.16;5074052;28;20032;-70
2024/01/27 08:01:42;;;;;;;4.85;2.80;;;;;;;2.39;59.00;94369.84;5073390;28;20036;-71
2024/01/27 08:04:08;;;;;;;3.80;2.20;;;;;;;2.22;58.68;94384.88;5074894;28;20024;-71
2024/01/27 08:06:34;;;;;;;4.68;2.78;;;;;;;2.05;59.75;94395.47;5074150;28;20469;-71
2024/01/27 08:08:59;;;;;;;5.35;2.50;;;;;;;2.13;60.38;94411.81;5071824;28;20029;-71
2024/01/27 08:11:25;;;;;;;3.72;3.25;;;;;;;2.18;59.40;94409.25;5073215;28;20509;-70
2024/01/27 08:13:52;;;;;;;4.70;2.40;;;;;;;2.15;59.33;94405.28;5074415;28;20036;-70
2024/01/27 08:16:17;;;;;;;2.72;2.53;;;;;;;2.11;59.60;94393.69;5073865;28;20082;-71
2024/01/27 08:18:44;;;;;;;5.57;3.08;;;;;;;2.16;58.72;94398.97;5073529;28;20017;-71
2024/01/27 08:21:11;;;;;;;3.78;2.63;;;;;;;2.04;58.75;94361.59;5073989;28;20059;-70
2024/01/27 08:23:37;;;;;;;4.43;3.35;;;;;;;2.18;57.52;94347.06;5073916;28;20663;-70
2024/01/27 08:26:02;;;;;;;6.78;2.72;;;;;;;2.17;56.51;94366.47;5073998;28;20035;-70
2024/01/27 08:28:28;;;;;;;5.45;3.05;;;;;;;2.05;56.36;94371.06;5073911;28;20035;-70
2024/01/27 08:30:53;;;;;;;3.08;2.78;;;;;;;2.11;55.88;94346.44;5073156;28;20436;-70
2024/01/27 08:33:19;;;;;;;10.43;3.13;;;;;;;2.37;55.93;94374.53;5073616;28;20040;-70
2024/01/27 08:35:48;;;;;;;3.13;2.83;;;;;;;2.08;56.73;94362.69;5073579;28;20032;-70
2024/01/27 08:38:13;;;;;;;4.57;2.97;;;;;;;2.17;56.48;94340.22;5072250;28;20029;-70
2024/01/27 08:40:39;;;;;;;5.40;2.80;;;;;;;2.27;57.01;94382.31;5072842;28;20029;-69
2024/01/27 08:43:05;;;;;;;3.25;2.95;;;;;;;2.24;57.23;94382.03;5072891;28;20024;-69
2024/01/27 08:45:31;;;;;;;4.57;3.08;;;;;;;2.16;57.19;94379.84;5072002;28;20431;-70
2024/01/27 08:47:57;;;;;;;6.70;3.22;;;;;;;2.18;57.14;94341.81;5073147;28;20043;-70
2024/01/27 08:50:22;;;;;;;5.13;3.50;;;;;;;2.29;57.41;94375.00;5073097;28;20036;-70
2024/01/27 08:52:48;;;;;;;4.13;3.05;;;;;;;2.40;57.86;94381.91;5071096;28;20115;-70
2024/01/27 08:55:14;;;;;;;6.93;4.32;;;;;;;2.50;56.62;94381.22;5072526;28;20021;-70
2024/01/27 08:57:39;;;;;;;7.65;5.00;;;;;;;2.58;56.21;94377.34;5072487;28;20095;-70
2024/01/27 09:00:05;;;;;;;6.25;4.20;;;;;;;2.62;56.08;94341.66;5073247;28;20116;-70
2024/01/27 09:02:31;;;;;;;7.43;5.15;;;;;;;2.75;55.64;94362.25;5072991;28;20071;-70
2024/01/27 09:04:56;;;;;;;5.72;3.65;;;;;;;2.96;54.85;94356.91;5073344;28;20048;-70
2024/01/27 09:07:23;;;;;;;3.63;3.22;;;;;;;3.03;53.48;94361.16;5072821;28;20020;-70
2024/01/27 09:09:48;;;;;;;3.83;3.47;;;;;;;3.18;53.26;94335.78;5073808;28;20048;-70
2024/01/27 09:12:14;;;;;;;2.75;2.47;;;;;;;3.08;53.58;94348.06;5071903;28;20071;-70
2024/01/27 09:14:40;;;;;;;3.38;3.08;;;;;;;3.16;53.09;94350.22;5072849;28;20064;-69
2024/01/27 09:17:05;;;;;;;3.97;3.30;;;;;;;3.18;53.13;94350.75;5072938;28;20051;-70
2024/01/27 09:19:31;;;;;;;15.27;8.75;;;;;;;3.17;53.48;94370.19;5072513;28;20021;-70
2024/01/27 09:21:56;;;;;;;6.18;4.65;;;;;;;3.11;54.42;94366.75;5072348;28;20034;-70
2024/01/27 09:24:22;;;;;;;6.10;4.55;;;;;;;3.16;53.75;94353.63;5073082;28;20112;-70
2024/01/27 09:26:47;;;;;;;4.75;4.25;;;;;;;3.10;54.37;94362.53;5073122;28;20400;-70
2024/01/27 09:29:13;;;;;;;4.20;3.53;;;;;;;3.07;54.32;94367.50;5072758;28;20107;-70
2024/01/27 09:31:38;;;;;;;7.63;4.50;;;;;;;3.14;54.58;94363.59;5072490;28;20119;-70
2024/01/27 09:34:03;;;;;;;4.75;3.15;;;;;;;3.03;55.22;94333.06;5070675;28;20024;-70
2024/01/27 09:36:29;;;;;;;3.55;3.08;;;;;;;3.08;54.50;94330.47;5071807;28;20428;-70
2024/01/27 09:38:54;;;;;;;6.18;4.38;;;;;;;3.30;55.24;94357.41;5071639;28;20560;-70
2024/01/27 09:41:20;;;;;;;9.25;3.65;;;;;;;3.33;53.88;94338.47;5072200;28;20047;-70
2024/01/27 09:43:47;;;;;;;5.00;3.60;;;;;;;3.74;52.98;94349.19;5071897;28;20491;-69
2024/01/27 09:46:16;;;;;;;3.80;2.92;;;;;;;3.63;53.09;94353.63;5071835;28;20098;-68
2024/01/27 09:48:42;;;;;;;5.15;3.17;;;;;;;3.63;52.67;94331.78;5071538;28;20174;-68
2024/01/27 09:51:09;;;;;;;6.40;5.07;;;;;;;3.47;53.74;94380.13;5070131;28;20132;-68
2024/01/27 09:53:35;;;;;;;9.05;5.38;;;;;;;3.38;53.85;94375.31;5070717;28;20032;-69
2024/01/27 09:56:03;;;;;;;5.85;3.95;;;;;;;3.45;53.67;94395.34;5070916;28;20032;-69
2024/01/27 09:58:29;;;;;;;4.10;2.97;;;;;;;3.30;54.04;94396.03;5071685;28;20043;-70
2024/01/27 10:00:57;;;;;;;6.50;3.10;;;;;;;3.20;54.25;94407.28;5071131;28;20031;-69
2024/01/27 10:03:28;;;;;;;3.60;3.30;;;;;;;3.17;54.70;94397.28;5070002;28;20033;-69
2024/01/27 10:05:54;;;;;;;7.30;4.85;;;;;;;3.21;54.53;94408.88;5070976;28;20025;-69
2024/01/27 10:08:23;;;;;;;2.80;2.58;;;;;;;3.08;54.59;94411.94;5069783;28;20032;-69
2024/01/27 10:10:55;;;;;;;8.63;4.20;;;;;;;3.17;54.90;94423.56;5070765;28;20025;-69
2024/01/27 10:13:27;;;;;;;4.43;4.00;;;;;;;2.79;55.28;94393.03;5071310;28;20565;-70
2024/01/27 10:16:02;;;;;;;7.18;4.00;;;;;;;2.89;54.83;94411.50;5071480;28;20025;-69
2024/01/27 10:18:28;;;;;;;;;;;;;;;2.67;56.01;94444.16;5071585;28;20111;-70
2024/01/27 10:20:53;;;;;;;15.25;7.93;;;;;;;2.55;56.50;94444.28;5071228;28;19942;-69
2024/01/27 10:23:19;;;;;;;7.00;4.03;;;;;;;2.43;56.99;94425.25;5071256;28;20048;-69
2024/01/27 10:25:44;;;;;;;4.47;3.55;;;;;;;2.55;57.44;94430.38;5071325;28;20055;-69
2024/01/27 10:28:10;;;;;;;3.03;2.72;;;;;;;2.44;57.01;94427.66;5071380;28;20051;-69
2024/01/27 10:30:36;;;;;;;3.85;3.45;;;;;;;2.56;57.22;94434.56;5069820;28;20056;-69
2024/01/27 10:33:02;;;;;;;3.15;2.88;;;;;;;2.42;56.61;94448.09;5070781;28;20037;-69
2024/01/27 10:35:28;;;;;;;2.80;2.58;;;;;;;2.42;57.09;94448.09;5070606;28;20033;-69
2024/01/27 10:37:55;;;;;;;5.18;2.40;;;;;;;2.56;56.67;94451.13;5069636;28;20107;-69
2024/01/27 10:40:24;;;;;;;4.35;3.17;;;;;;;2.48;56.83;94452.38;5070027;28;20028;-69
2024/01/27 10:43:03;;;;;;;4.97;3.53;;;;;;;2.62;56.16;94452.75;5069287;28;20017;-69
2024/01/27 10:45:40;;;;;;;4.60;3.50;;;;;;;2.37;56.69;94461.16;5069356;28;20507;-69
2024/01/27 10:48:07;;;;;;;6.78;4.57;;;;;;;2.12;57.44;94450.38;5071067;28;20028;-69
2024/01/27 10:50:39;;;;;;;4.85;4.00;;;;;;;2.26;57.16;94464.72;5069860;28;20045;-70
2024/01/27 10:53:09;;;;;;;6.13;4.20;;;;;;;2.13;57.35;94454.59;5070448;28;20032;-70
2024/01/27 10:55:36;;;;;;;4.38;3.63;;;;;;;2.19;57.74;94482.50;5071181;28;20459;-69
2024/01/27 10:58:02;;;;;;;7.10;4.60;;;;;;;1.91;58.48;94456.44;5069905;28;20024;-70
2024/01/27 11:00:30;;;;;;;5.90;5.07;;;;;;;1.84;58.60;94461.00;5071075;28;20033;-70
2024/01/27 11:02:59;;;;;;;3.95;2.97;;;;;;;1.99;58.26;94450.75;5070069;28;20025;-69
2024/01/27 11:05:28;;;;;;;4.03;2.75;;;;;;;2.06;58.17;94464.47;5070149;28;20066;-69
2024/01/27 11:07:54;;;;;;;3.28;2.72;;;;;;;1.72;58.77;94445.38;5069440;28;20024;-69
2024/01/27 11:10:19;;;;;;;3.05;2.55;;;;;;;1.83;59.08;94454.19;5068948;28;20175;-69
2024/01/27 11:12:47;;;;;;;3.00;2.58;;;;;;;1.88;58.84;94462.94;5070432;28;20543;-70
2024/01/27 11:15:13;;;;;;;3.80;2.83;;;;;;;1.70;59.41;94460.56;5069292;28;20067;-69
2024/01/27 11:17:42;;;;;;;2.83;2.40;;;;;;;1.80;59.37;94460.72;5069275;28;20025;-69
2024/01/27 11:20:11;;;;;;;4.95;2.83;;;;;;;1.88;59.48;94477.88;5070142;28;20673;-69
2024/01/27 11:22:37;;;;;;;5.03;4.53;;;;;;;1.92;59.77;94473.72;5074244;28;20082;-69
2024/01/27 11:25:15;;;;;;;5.15;4.53;;;;;;;1.78;59.77;94449.66;5073231;28;20043;-69
2024/01/27 11:27:41;;;;;;;4.53;3.13;;;;;;;1.74;59.96;94445.16;5074764;28;20036;-69
2024/01/27 11:30:24;;;;;;;6.82;5.05;;;;;;;1.83;59.85;94454.19;5074303;28;20029;-69
2024/01/27 11:32:49;;;;;;;9.93;6.43;;;;;;;1.80;60.34;94476.44;5074316;28;20055;-69
2024/01/27 11:35:17;;;;;;;5.50;4.57;;;;;;;1.76;60.31;94474.56;5074036;28;20041;-69